Accueil
METAR-TAF:

METAR-TAF

Aéroports :

Nörvenich, Allemagne

Base aérienne de Nörvenich

latitude: 50-50N, longitude: 006-40E, altitude: 118 m

Observation

Le bulletin a été fait il y a 15 minutes, à 02:20 UTC
Vent 6 kt de sud-est
Température 12°C
Humidité 50%
Pression 1005 hPa
Visibilité 10 km ou plus

METAR: ETNN 010220Z AUTO 13006KT 9999 // ////// 12/02 Q1005 ///

Heure: 04:35 (02:35 UTC)

Prévision

Le bulletin a été fait il y a 10 heures et 25 minutes, à 16:10 UTC
Prévision valable du 30 à 17 UTC au 01 à 02 UTC
Vent 12 kt de sud-est avec des rafales jusqu'à 22 kt
Visibilité 10 km ou plus
Nuages fragmentés à une hauteur de 20000 ft
Evoluant progressivement
du 30 à 17 UTC au 30 à 19 UTC
Vent 10 kt de est/sud-est
Visibilité 10 km ou plus
Nuages épars à une hauteur de 7000 ft
Nuages fragmentés à une hauteur de 12000 ft

TAF: ETNN 301610Z 3017/0102 13012G22KT 9999 NSW BKN200 BECMG 3017/3019 11010KT 9999 NSW SCT070 BKN120 BY ETGL

Observations et prévisions météorologiques de plus de 4000 aéroports (messages METAR et TAF).

Les stations disponibles sont représentées par des disques jaunes et rouges sur la carte.

Passer la souris dessus pour voir le nom de la station.

Cliquer dessus pour voir les observations et prévisions météorologiques.

Pour changer de carte: cliquez sur les boutons verts avec une croix noire pour zoomer, sur le bouton vert avec un tiret pour effectuer un zoom arrière, ou sur les flèches vertes pour les cartes adjacentes.


METAR-TAF: